sensor_id;sensor_type;location;lat;lon;timestamp;temperature;humidity
9730;DHT22;4904;49.152;11.004;2022-09-17T00:00:33;9.50;99.90
9730;DHT22;4904;49.152;11.004;2022-09-17T00:03:00;9.40;99.90
9730;DHT22;4904;49.152;11.004;2022-09-17T00:05:28;9.40;99.90
9730;DHT22;4904;49.152;11.004;2022-09-17T00:07:55;9.40;99.90
9730;DHT22;4904;49.152;11.004;2022-09-17T00:10:22;9.40;99.90
9730;DHT22;4904;49.152;11.004;2022-09-17T00:12:49;9.40;99.90
9730;DHT22;4904;49.152;11.004;2022-09-17T00:15:16;9.40;99.90
9730;DHT22;4904;49.152;11.004;2022-09-17T00:17:43;9.30;99.90
9730;DHT22;4904;49.152;11.004;2022-09-17T00:20:10;9.20;99.90
9730;DHT22;4904;49.152;11.004;2022-09-17T00:22:39;9.20;99.90
9730;DHT22;4904;49.152;11.004;2022-09-17T00:25:06;9.20;99.90
9730;DHT22;4904;49.152;11.004;2022-09-17T00:27:34;9.20;99.90
9730;DHT22;4904;49.152;11.004;2022-09-17T00:30:01;9.20;99.90
9730;DHT22;4904;49.152;11.004;2022-09-17T00:32:27;9.20;99.90
9730;DHT22;4904;49.152;11.004;2022-09-17T00:34:54;9.10;99.90
9730;DHT22;4904;49.152;11.004;2022-09-17T00:37:21;9.10;99.90
9730;DHT22;4904;49.152;11.004;2022-09-17T00:39:50;9.10;99.90
9730;DHT22;4904;49.152;11.004;2022-09-17T00:42:18;9.10;99.90
9730;DHT22;4904;49.152;11.004;2022-09-17T00:44:47;9.10;99.90
9730;DHT22;4904;49.152;11.004;2022-09-17T00:47:19;9.10;99.90
9730;DHT22;4904;49.152;11.004;2022-09-17T00:49:48;9.10;99.90
9730;DHT22;4904;49.152;11.004;2022-09-17T00:52:19;9.20;99.90
9730;DHT22;4904;49.152;11.004;2022-09-17T00:54:53;9.30;99.90
9730;DHT22;4904;49.152;11.004;2022-09-17T00:57:21;9.30;99.90
9730;DHT22;4904;49.152;11.004;2022-09-17T00:59:48;9.40;99.90
9730;DHT22;4904;49.152;11.004;2022-09-17T01:02:16;9.40;99.90
9730;DHT22;4904;49.152;11.004;2022-09-17T01:04:43;9.50;99.90
9730;DHT22;4904;49.152;11.004;2022-09-17T01:07:18;9.50;99.90
9730;DHT22;4904;49.152;11.004;2022-09-17T01:09:52;9.50;99.90
9730;DHT22;4904;49.152;11.004;2022-09-17T01:12:30;9.40;99.90
9730;DHT22;4904;49.152;11.004;2022-09-17T01:15:09;9.40;99.90
9730;DHT22;4904;49.152;11.004;2022-09-17T01:17:43;9.30;99.90
9730;DHT22;4904;49.152;11.004;2022-09-17T01:20:39;9.40;99.90
9730;DHT22;4904;49.152;11.004;2022-09-17T01:23:30;9.40;99.90
9730;DHT22;4904;49.152;11.004;2022-09-17T01:26:17;9.30;99.90
9730;DHT22;4904;49.152;11.004;2022-09-17T01:28:53;9.30;99.90
9730;DHT22;4904;49.152;11.004;2022-09-17T01:31:35;9.30;99.90
9730;DHT22;4904;49.152;11.004;2022-09-17T01:34:13;9.30;99.90
9730;DHT22;4904;49.152;11.004;2022-09-17T01:36:50;9.30;99.90
9730;DHT22;4904;49.152;11.004;2022-09-17T01:39:32;9.40;99.90
9730;DHT22;4904;49.152;11.004;2022-09-17T01:42:09;9.30;99.90
9730;DHT22;4904;49.152;11.004;2022-09-17T01:44:46;9.30;99.90
9730;DHT22;4904;49.152;11.004;2022-09-17T01:47:19;9.30;99.90
9730;DHT22;4904;49.152;11.004;2022-09-17T01:49:49;9.30;99.90
9730;DHT22;4904;49.152;11.004;2022-09-17T01:52:18;9.40;99.90
9730;DHT22;4904;49.152;11.004;2022-09-17T01:54:49;9.50;99.90
9730;DHT22;4904;49.152;11.004;2022-09-17T01:57:24;9.50;99.90
9730;DHT22;4904;49.152;11.004;2022-09-17T01:59:56;9.50;99.90
9730;DHT22;4904;49.152;11.004;2022-09-17T02:02:29;9.60;99.90
9730;DHT22;4904;49.152;11.004;2022-09-17T02:05:00;9.60;99.90
9730;DHT22;4904;49.152;11.004;2022-09-17T02:07:30;9.70;99.90
9730;DHT22;4904;49.152;11.004;2022-09-17T02:10:02;9.80;99.90
9730;DHT22;4904;49.152;11.004;2022-09-17T02:12:36;9.70;99.90
9730;DHT22;4904;49.152;11.004;2022-09-17T02:15:07;9.60;99.90
9730;DHT22;4904;49.152;11.004;2022-09-17T02:17:40;9.50;99.90
9730;DHT22;4904;49.152;11.004;2022-09-17T02:20:09;9.40;99.90
9730;DHT22;4904;49.152;11.004;2022-09-17T02:22:40;9.50;99.90
9730;DHT22;4904;49.152;11.004;2022-09-17T02:25:12;9.40;99.90
9730;DHT22;4904;49.152;11.004;2022-09-17T02:27:48;9.40;99.90
9730;DHT22;4904;49.152;11.004;2022-09-17T02:30:17;9.30;99.90
9730;DHT22;4904;49.152;11.004;2022-09-17T02:32:46;9.20;99.90
9730;DHT22;4904;49.152;11.004;2022-09-17T02:35:14;9.30;99.90
9730;DHT22;4904;49.152;11.004;2022-09-17T02:37:41;9.30;99.90
9730;DHT22;4904;49.152;11.004;2022-09-17T02:40:09;9.30;99.90
9730;DHT22;4904;49.152;11.004;2022-09-17T02:42:51;9.20;99.90
9730;DHT22;4904;49.152;11.004;2022-09-17T02:45:29;9.20;99.90
9730;DHT22;4904;49.152;11.004;2022-09-17T02:48:16;9.30;99.90
9730;DHT22;4904;49.152;11.004;2022-09-17T02:51:02;9.20;99.90
9730;DHT22;4904;49.152;11.004;2022-09-17T02:53:36;9.20;99.90
9730;DHT22;4904;49.152;11.004;2022-09-17T02:56:12;9.20;99.90
9730;DHT22;4904;49.152;11.004;2022-09-17T02:58:45;9.30;99.90
9730;DHT22;4904;49.152;11.004;2022-09-17T03:01:18;9.20;99.90
9730;DHT22;4904;49.152;11.004;2022-09-17T03:03:49;9.20;99.90
9730;DHT22;4904;49.152;11.004;2022-09-17T03:06:17;9.20;99.90
9730;DHT22;4904;49.152;11.004;2022-09-17T03:08:44;9.30;99.90
9730;DHT22;4904;49.152;11.004;2022-09-17T03:11:12;9.30;99.90
9730;DHT22;4904;49.152;11.004;2022-09-17T03:13:39;9.30;99.90
9730;DHT22;4904;49.152;11.004;2022-09-17T03:16:07;9.40;99.90
9730;DHT22;4904;49.152;11.004;2022-09-17T03:18:33;9.40;99.90
9730;DHT22;4904;49.152;11.004;2022-09-17T03:21:02;9.30;99.90
9730;DHT22;4904;49.152;11.004;2022-09-17T03:23:29;9.30;99.90
9730;DHT22;4904;49.152;11.004;2022-09-17T03:25:55;9.20;99.90
9730;DHT22;4904;49.152;11.004;2022-09-17T03:28:22;9.30;99.90
9730;DHT22;4904;49.152;11.004;2022-09-17T03:30:50;9.30;99.90
9730;DHT22;4904;49.152;11.004;2022-09-17T03:33:17;9.30;99.90
9730;DHT22;4904;49.152;11.004;2022-09-17T03:35:45;9.30;99.90
9730;DHT22;4904;49.152;11.004;2022-09-17T03:38:13;9.30;99.90
9730;DHT22;4904;49.152;11.004;2022-09-17T03:40:40;9.30;99.90
9730;DHT22;4904;49.152;11.004;2022-09-17T03:43:08;9.30;99.90
9730;DHT22;4904;49.152;11.004;2022-09-17T03:45:35;9.30;99.90
9730;DHT22;4904;49.152;11.004;2022-09-17T03:48:01;9.30;99.90
9730;DHT22;4904;49.152;11.004;2022-09-17T03:50:28;9.20;99.90
9730;DHT22;4904;49.152;11.004;2022-09-17T03:52:55;9.20;99.90
9730;DHT22;4904;49.152;11.004;2022-09-17T03:55:23;9.10;99.90
9730;DHT22;4904;49.152;11.004;2022-09-17T03:57:50;9.10;99.90
9730;DHT22;4904;49.152;11.004;2022-09-17T04:00:17;9.10;99.90
9730;DHT22;4904;49.152;11.004;2022-09-17T04:02:44;9.10;99.90
9730;DHT22;4904;49.152;11.004;2022-09-17T04:05:11;9.10;99.90
9730;DHT22;4904;49.152;11.004;2022-09-17T04:07:38;9.10;99.90
9730;DHT22;4904;49.152;11.004;2022-09-17T04:10:06;9.20;99.90
9730;DHT22;4904;49.152;11.004;2022-09-17T04:12:35;9.20;99.90
9730;DHT22;4904;49.152;11.004;2022-09-17T04:15:02;9.20;99.90
9730;DHT22;4904;49.152;11.004;2022-09-17T04:17:28;9.20;99.90
9730;DHT22;4904;49.152;11.004;2022-09-17T04:19:55;9.20;99.90
9730;DHT22;4904;49.152;11.004;2022-09-17T04:22:22;9.20;99.90
9730;DHT22;4904;49.152;11.004;2022-09-17T04:24:49;9.20;99.90
9730;DHT22;4904;49.152;11.004;2022-09-17T04:27:16;9.20;99.90
9730;DHT22;4904;49.152;11.004;2022-09-17T04:29:44;9.20;99.90
9730;DHT22;4904;49.152;11.004;2022-09-17T04:32:11;9.20;99.90
9730;DHT22;4904;49.152;11.004;2022-09-17T04:34:38;9.20;99.90
9730;DHT22;4904;49.152;11.004;2022-09-17T04:37:05;9.20;99.90
9730;DHT22;4904;49.152;11.004;2022-09-17T04:39:31;9.20;99.90
9730;DHT22;4904;49.152;11.004;2022-09-17T04:41:58;9.10;99.90
9730;DHT22;4904;49.152;11.004;2022-09-17T04:44:25;9.20;99.90
9730;DHT22;4904;49.152;11.004;2022-09-17T04:46:53;9.20;99.90
9730;DHT22;4904;49.152;11.004;2022-09-17T04:49:20;9.20;99.90
9730;DHT22;4904;49.152;11.004;2022-09-17T04:51:47;9.20;99.90
9730;DHT22;4904;49.152;11.004;2022-09-17T04:54:14;9.20;99.90
9730;DHT22;4904;49.152;11.004;2022-09-17T04:56:41;9.20;99.90
9730;DHT22;4904;49.152;11.004;2022-09-17T04:59:08;9.20;99.90
9730;DHT22;4904;49.152;11.004;2022-09-17T05:01:35;9.20;99.90
9730;DHT22;4904;49.152;11.004;2022-09-17T05:04:03;9.20;99.90
9730;DHT22;4904;49.152;11.004;2022-09-17T05:06:30;9.20;99.90
9730;DHT22;4904;49.152;11.004;2022-09-17T05:08:57;9.20;99.90
9730;DHT22;4904;49.152;11.004;2022-09-17T05:11:24;9.10;99.90
9730;DHT22;4904;49.152;11.004;2022-09-17T05:13:51;9.10;99.90
9730;DHT22;4904;49.152;11.004;2022-09-17T05:16:18;9.00;99.90
9730;DHT22;4904;49.152;11.004;2022-09-17T05:18:45;9.10;99.90
9730;DHT22;4904;49.152;11.004;2022-09-17T05:21:14;9.00;99.90
9730;DHT22;4904;49.152;11.004;2022-09-17T05:23:41;9.00;99.90
9730;DHT22;4904;49.152;11.004;2022-09-17T05:26:08;9.00;99.90
9730;DHT22;4904;49.152;11.004;2022-09-17T05:28:35;8.90;99.90
9730;DHT22;4904;49.152;11.004;2022-09-17T05:31:02;8.90;99.90
9730;DHT22;4904;49.152;11.004;2022-09-17T05:33:29;8.90;99.90
9730;DHT22;4904;49.152;11.004;2022-09-17T05:35:56;8.90;99.90
9730;DHT22;4904;49.152;11.004;2022-09-17T05:38:24;8.90;99.90
9730;DHT22;4904;49.152;11.004;2022-09-17T05:40:51;8.90;99.90
9730;DHT22;4904;49.152;11.004;2022-09-17T05:43:18;9.00;99.90
9730;DHT22;4904;49.152;11.004;2022-09-17T05:45:45;9.00;99.90
9730;DHT22;4904;49.152;11.004;2022-09-17T05:48:13;9.00;99.90
9730;DHT22;4904;49.152;11.004;2022-09-17T05:50:40;9.00;99.90
9730;DHT22;4904;49.152;11.004;2022-09-17T05:53:09;9.00;99.90
9730;DHT22;4904;49.152;11.004;2022-09-17T05:55:38;9.00;99.90
9730;DHT22;4904;49.152;11.004;2022-09-17T05:58:08;9.00;99.90
9730;DHT22;4904;49.152;11.004;2022-09-17T06:00:36;9.00;99.90
9730;DHT22;4904;49.152;11.004;2022-09-17T06:03:03;9.10;99.90
9730;DHT22;4904;49.152;11.004;2022-09-17T06:05:30;9.10;99.90
9730;DHT22;4904;49.152;11.004;2022-09-17T06:07:57;9.10;99.90
9730;DHT22;4904;49.152;11.004;2022-09-17T06:10:24;9.10;99.90
9730;DHT22;4904;49.152;11.004;2022-09-17T06:12:56;9.10;99.90
9730;DHT22;4904;49.152;11.004;2022-09-17T06:15:23;9.10;99.90
9730;DHT22;4904;49.152;11.004;2022-09-17T06:17:50;9.10;99.90
9730;DHT22;4904;49.152;11.004;2022-09-17T06:20:17;9.20;99.90
9730;DHT22;4904;49.152;11.004;2022-09-17T06:22:44;9.20;99.90
9730;DHT22;4904;49.152;11.004;2022-09-17T06:25:11;9.30;99.90
9730;DHT22;4904;49.152;11.004;2022-09-17T06:27:38;9.20;99.90
9730;DHT22;4904;49.152;11.004;2022-09-17T06:30:07;9.20;99.90
9730;DHT22;4904;49.152;11.004;2022-09-17T06:32:34;9.30;99.90
9730;DHT22;4904;49.152;11.004;2022-09-17T06:35:01;9.40;99.90
9730;DHT22;4904;49.152;11.004;2022-09-17T06:37:28;9.50;99.90
9730;DHT22;4904;49.152;11.004;2022-09-17T06:39:56;9.40;99.90
9730;DHT22;4904;49.152;11.004;2022-09-17T06:42:24;9.40;99.90
9730;DHT22;4904;49.152;11.004;2022-09-17T06:44:53;9.40;99.90
9730;DHT22;4904;49.152;11.004;2022-09-17T06:47:23;9.40;99.90
9730;DHT22;4904;49.152;11.004;2022-09-17T06:49:50;9.30;99.90
9730;DHT22;4904;49.152;11.004;2022-09-17T06:52:17;9.30;99.90
9730;DHT22;4904;49.152;11.004;2022-09-17T06:54:44;9.30;99.90
9730;DHT22;4904;49.152;11.004;2022-09-17T06:57:11;9.30;99.90
9730;DHT22;4904;49.152;11.004;2022-09-17T06:59:37;9.10;99.90
9730;DHT22;4904;49.152;11.004;2022-09-17T07:02:04;9.10;99.90
9730;DHT22;4904;49.152;11.004;2022-09-17T07:04:33;9.10;99.90
9730;DHT22;4904;49.152;11.004;2022-09-17T07:07:00;9.00;99.90
9730;DHT22;4904;49.152;11.004;2022-09-17T07:09:26;8.90;99.90
9730;DHT22;4904;49.152;11.004;2022-09-17T07:11:53;9.10;99.90
9730;DHT22;4904;49.152;11.004;2022-09-17T07:14:20;8.80;99.90
9730;DHT22;4904;49.152;11.004;2022-09-17T07:16:49;8.80;99.90
9730;DHT22;4904;49.152;11.004;2022-09-17T07:19:16;8.70;99.90
9730;DHT22;4904;49.152;11.004;2022-09-17T07:21:46;8.70;99.90
9730;DHT22;4904;49.152;11.004;2022-09-17T07:24:13;8.70;99.90
9730;DHT22;4904;49.152;11.004;2022-09-17T07:26:40;8.70;99.90
9730;DHT22;4904;49.152;11.004;2022-09-17T07:29:07;8.70;99.90
9730;DHT22;4904;49.152;11.004;2022-09-17T07:31:34;8.70;99.90
9730;DHT22;4904;49.152;11.004;2022-09-17T07:34:01;8.70;99.90
9730;DHT22;4904;49.152;11.004;2022-09-17T07:36:28;8.80;99.90
9730;DHT22;4904;49.152;11.004;2022-09-17T07:38:56;8.70;99.90
9730;DHT22;4904;49.152;11.004;2022-09-17T07:41:23;8.80;99.90
9730;DHT22;4904;49.152;11.004;2022-09-17T07:43:52;8.80;99.90
9730;DHT22;4904;49.152;11.004;2022-09-17T07:46:20;8.70;99.90
9730;DHT22;4904;49.152;11.004;2022-09-17T07:48:48;8.80;99.90
9730;DHT22;4904;49.152;11.004;2022-09-17T07:51:15;8.70;99.90
9730;DHT22;4904;49.152;11.004;2022-09-17T07:53:43;8.80;99.90
9730;DHT22;4904;49.152;11.004;2022-09-17T07:56:11;8.80;99.90
9730;DHT22;4904;49.152;11.004;2022-09-17T07:58:38;8.80;99.90
9730;DHT22;4904;49.152;11.004;2022-09-17T08:01:06;8.80;99.90
9730;DHT22;4904;49.152;11.004;2022-09-17T08:03:34;8.90;99.90
9730;DHT22;4904;49.152;11.004;2022-09-17T08:06:02;8.90;99.90
9730;DHT22;4904;49.152;11.004;2022-09-17T08:08:31;8.90;99.90
9730;DHT22;4904;49.152;11.004;2022-09-17T08:11:01;8.90;99.90
9730;DHT22;4904;49.152;11.004;2022-09-17T08:13:31;8.90;99.90
9730;DHT22;4904;49.152;11.004;2022-09-17T08:15:58;8.90;99.90
9730;DHT22;4904;49.152;11.004;2022-09-17T08:18:26;8.90;99.90
9730;DHT22;4904;49.152;11.004;2022-09-17T08:20:55;9.00;99.90
9730;DHT22;4904;49.152;11.004;2022-09-17T08:23:22;9.00;99.90
9730;DHT22;4904;49.152;11.004;2022-09-17T08:25:52;9.10;99.90
9730;DHT22;4904;49.152;11.004;2022-09-17T08:28:19;9.10;99.90
9730;DHT22;4904;49.152;11.004;2022-09-17T08:30:47;9.10;99.90
9730;DHT22;4904;49.152;11.004;2022-09-17T08:33:15;9.10;99.90
9730;DHT22;4904;49.152;11.004;2022-09-17T08:35:42;9.20;99.90
9730;DHT22;4904;49.152;11.004;2022-09-17T08:38:09;9.20;99.90
9730;DHT22;4904;49.152;11.004;2022-09-17T08:40:52;9.20;99.90
9730;DHT22;4904;49.152;11.004;2022-09-17T08:43:23;9.20;99.90
9730;DHT22;4904;49.152;11.004;2022-09-17T08:45:53;9.40;99.90
9730;DHT22;4904;49.152;11.004;2022-09-17T08:48:21;9.20;99.90
9730;DHT22;4904;49.152;11.004;2022-09-17T08:50:51;9.20;99.90
9730;DHT22;4904;49.152;11.004;2022-09-17T08:53:37;9.20;99.90
9730;DHT22;4904;49.152;11.004;2022-09-17T08:56:10;9.30;99.90
9730;DHT22;4904;49.152;11.004;2022-09-17T08:58:58;9.30;99.90
9730;DHT22;4904;49.152;11.004;2022-09-17T09:01:39;9.30;99.90
9730;DHT22;4904;49.152;11.004;2022-09-17T09:07:08;9.30;99.90
9730;DHT22;4904;49.152;11.004;2022-09-17T09:09:39;9.40;99.90
9730;DHT22;4904;49.152;11.004;2022-09-17T09:12:21;9.40;99.90
9730;DHT22;4904;49.152;11.004;2022-09-17T09:14:54;9.50;99.90
9730;DHT22;4904;49.152;11.004;2022-09-17T09:17:27;9.50;99.90
9730;DHT22;4904;49.152;11.004;2022-09-17T09:19:55;9.50;99.90
9730;DHT22;4904;49.152;11.004;2022-09-17T09:22:33;9.60;99.90
9730;DHT22;4904;49.152;11.004;2022-09-17T09:25:22;9.70;99.90
9730;DHT22;4904;49.152;11.004;2022-09-17T09:28:05;9.70;99.90
9730;DHT22;4904;49.152;11.004;2022-09-17T09:30:43;9.70;99.90
9730;DHT22;4904;49.152;11.004;2022-09-17T09:33:16;9.80;99.90
9730;DHT22;4904;49.152;11.004;2022-09-17T09:35:44;9.70;99.90
9730;DHT22;4904;49.152;11.004;2022-09-17T09:38:15;9.80;99.90
9730;DHT22;4904;49.152;11.004;2022-09-17T09:51:24;9.90;99.90
9730;DHT22;4904;49.152;11.004;2022-09-17T09:54:06;9.90;99.90
9730;DHT22;4904;49.152;11.004;2022-09-17T09:56:55;10.00;99.90
9730;DHT22;4904;49.152;11.004;2022-09-17T09:59:23;9.90;99.90
9730;DHT22;4904;49.152;11.004;2022-09-17T10:01:50;9.90;99.90
9730;DHT22;4904;49.152;11.004;2022-09-17T10:04:19;9.90;99.90
9730;DHT22;4904;49.152;11.004;2022-09-17T10:06:50;9.90;99.90
9730;DHT22;4904;49.152;11.004;2022-09-17T10:09:19;9.90;99.90
9730;DHT22;4904;49.152;11.004;2022-09-17T10:12:03;9.90;99.90
9730;DHT22;4904;49.152;11.004;2022-09-17T10:14:32;9.90;99.90
9730;DHT22;4904;49.152;11.004;2022-09-17T10:17:18;10.00;99.90
9730;DHT22;4904;49.152;11.004;2022-09-17T10:20:02;10.00;99.90
9730;DHT22;4904;49.152;11.004;2022-09-17T10:22:37;10.10;99.90
9730;DHT22;4904;49.152;11.004;2022-09-17T10:25:06;10.10;99.90
9730;DHT22;4904;49.152;11.004;2022-09-17T10:27:44;10.00;99.90
9730;DHT22;4904;49.152;11.004;2022-09-17T10:30:15;10.10;99.90
9730;DHT22;4904;49.152;11.004;2022-09-17T10:32:42;10.20;99.90
9730;DHT22;4904;49.152;11.004;2022-09-17T10:35:24;10.20;99.90
9730;DHT22;4904;49.152;11.004;2022-09-17T10:37:53;10.50;99.90
9730;DHT22;4904;49.152;11.004;2022-09-17T10:40:26;10.80;99.90
9730;DHT22;4904;49.152;11.004;2022-09-17T10:43:21;11.10;99.90
9730;DHT22;4904;49.152;11.004;2022-09-17T10:45:56;11.20;99.90
9730;DHT22;4904;49.152;11.004;2022-09-17T10:48:27;11.40;99.90
9730;DHT22;4904;49.152;11.004;2022-09-17T10:51:01;11.70;99.90
9730;DHT22;4904;49.152;11.004;2022-09-17T10:53:36;11.80;99.90
9730;DHT22;4904;49.152;11.004;2022-09-17T10:56:13;11.80;99.90
9730;DHT22;4904;49.152;11.004;2022-09-17T10:58:48;11.60;99.90
9730;DHT22;4904;49.152;11.004;2022-09-17T11:01:27;11.50;99.90
9730;DHT22;4904;49.152;11.004;2022-09-17T11:04:17;11.40;99.90
9730;DHT22;4904;49.152;11.004;2022-09-17T11:10:02;11.50;99.90
9730;DHT22;4904;49.152;11.004;2022-09-17T11:12:56;11.40;99.90
9730;DHT22;4904;49.152;11.004;2022-09-17T11:15:35;11.30;99.90
9730;DHT22;4904;49.152;11.004;2022-09-17T11:18:30;11.10;99.90
9730;DHT22;4904;49.152;11.004;2022-09-17T11:21:23;11.10;99.90
9730;DHT22;4904;49.152;11.004;2022-09-17T11:24:12;11.30;99.90
9730;DHT22;4904;49.152;11.004;2022-09-17T11:26:51;11.50;99.90
9730;DHT22;4904;49.152;11.004;2022-09-17T11:35:31;11.80;99.90
9730;DHT22;4904;49.152;11.004;2022-09-17T11:38:03;11.90;99.90
9730;DHT22;4904;49.152;11.004;2022-09-17T11:40:37;12.10;99.90
9730;DHT22;4904;49.152;11.004;2022-09-17T11:43:16;12.10;99.90
9730;DHT22;4904;49.152;11.004;2022-09-17T11:45:52;12.10;99.90
9730;DHT22;4904;49.152;11.004;2022-09-17T11:48:24;12.20;99.90
9730;DHT22;4904;49.152;11.004;2022-09-17T11:50:59;12.20;99.90
9730;DHT22;4904;49.152;11.004;2022-09-17T11:53:31;12.30;99.90
9730;DHT22;4904;49.152;11.004;2022-09-17T11:56:03;12.50;99.90
9730;DHT22;4904;49.152;11.004;2022-09-17T11:58:41;12.30;99.90
9730;DHT22;4904;49.152;11.004;2022-09-17T12:01:13;12.10;99.90
9730;DHT22;4904;49.152;11.004;2022-09-17T12:03:50;12.00;99.90
9730;DHT22;4904;49.152;11.004;2022-09-17T12:09:13;12.10;99.90
9730;DHT22;4904;49.152;11.004;2022-09-17T12:11:46;12.10;99.90
9730;DHT22;4904;49.152;11.004;2022-09-17T12:14:25;12.20;99.90
9730;DHT22;4904;49.152;11.004;2022-09-17T12:16:57;12.30;99.90
9730;DHT22;4904;49.152;11.004;2022-09-17T12:19:30;12.30;99.90
9730;DHT22;4904;49.152;11.004;2022-09-17T12:25:21;11.70;99.90
9730;DHT22;4904;49.152;11.004;2022-09-17T12:27:54;11.50;99.90
9730;DHT22;4904;49.152;11.004;2022-09-17T12:31:08;11.50;99.90
9730;DHT22;4904;49.152;11.004;2022-09-17T12:33:40;11.40;99.90
9730;DHT22;4904;49.152;11.004;2022-09-17T12:36:30;11.10;99.90
9730;DHT22;4904;49.152;11.004;2022-09-17T12:39:13;10.90;99.90
9730;DHT22;4904;49.152;11.004;2022-09-17T12:41:51;10.90;99.90
9730;DHT22;4904;49.152;11.004;2022-09-17T12:44:50;10.90;99.90
9730;DHT22;4904;49.152;11.004;2022-09-17T12:47:45;10.90;99.90
9730;DHT22;4904;49.152;11.004;2022-09-17T12:50:20;10.90;99.90
9730;DHT22;4904;49.152;11.004;2022-09-17T12:53:07;10.90;99.90
9730;DHT22;4904;49.152;11.004;2022-09-17T12:55:46;10.80;99.90
9730;DHT22;4904;49.152;11.004;2022-09-17T12:58:27;10.60;99.90
9730;DHT22;4904;49.152;11.004;2022-09-17T13:01:02;10.50;99.90
9730;DHT22;4904;49.152;11.004;2022-09-17T15:53:58;12.60;99.90
9730;DHT22;4904;49.152;11.004;2022-09-17T15:56:27;12.80;99.90
9730;DHT22;4904;49.152;11.004;2022-09-17T15:59:21;12.60;99.90
9730;DHT22;4904;49.152;11.004;2022-09-17T16:01:54;12.50;99.90
9730;DHT22;4904;49.152;11.004;2022-09-17T16:04:27;12.50;99.90
9730;DHT22;4904;49.152;11.004;2022-09-17T16:07:26;12.50;99.90
9730;DHT22;4904;49.152;11.004;2022-09-17T16:09:55;12.40;99.90
9730;DHT22;4904;49.152;11.004;2022-09-17T16:12:25;12.30;99.90
9730;DHT22;4904;49.152;11.004;2022-09-17T16:14:55;12.30;99.90
9730;DHT22;4904;49.152;11.004;2022-09-17T16:17:42;12.30;99.90
9730;DHT22;4904;49.152;11.004;2022-09-17T16:20:15;12.30;99.90
9730;DHT22;4904;49.152;11.004;2022-09-17T16:22:56;12.30;99.90
9730;DHT22;4904;49.152;11.004;2022-09-17T16:25:28;12.40;99.90
9730;DHT22;4904;49.152;11.004;2022-09-17T16:27:59;12.40;99.90
9730;DHT22;4904;49.152;11.004;2022-09-17T16:30:28;12.50;99.90
9730;DHT22;4904;49.152;11.004;2022-09-17T16:32:55;12.40;99.90
9730;DHT22;4904;49.152;11.004;2022-09-17T16:35:24;12.30;99.90
9730;DHT22;4904;49.152;11.004;2022-09-17T16:37:55;12.20;99.90
9730;DHT22;4904;49.152;11.004;2022-09-17T16:40:24;11.90;99.90
9730;DHT22;4904;49.152;11.004;2022-09-17T16:42:56;12.00;99.90
9730;DHT22;4904;49.152;11.004;2022-09-17T16:45:25;11.70;99.90
9730;DHT22;4904;49.152;11.004;2022-09-17T16:47:52;11.70;99.90
9730;DHT22;4904;49.152;11.004;2022-09-17T16:50:20;11.60;99.90
9730;DHT22;4904;49.152;11.004;2022-09-17T16:52:49;11.60;99.90
9730;DHT22;4904;49.152;11.004;2022-09-17T16:55:17;11.60;99.90
9730;DHT22;4904;49.152;11.004;2022-09-17T16:57:45;11.50;99.90
9730;DHT22;4904;49.152;11.004;2022-09-17T17:00:16;11.50;99.90
9730;DHT22;4904;49.152;11.004;2022-09-17T17:02:51;11.60;99.90
9730;DHT22;4904;49.152;11.004;2022-09-17T17:05:19;11.50;99.90
9730;DHT22;4904;49.152;11.004;2022-09-17T17:07:46;11.50;99.90
9730;DHT22;4904;49.152;11.004;2022-09-17T17:10:14;11.40;99.90
9730;DHT22;4904;49.152;11.004;2022-09-17T17:12:42;11.40;99.90
9730;DHT22;4904;49.152;11.004;2022-09-17T17:15:11;11.40;99.90
9730;DHT22;4904;49.152;11.004;2022-09-17T17:17:49;11.30;99.90
9730;DHT22;4904;49.152;11.004;2022-09-17T17:20:17;11.30;99.90
9730;DHT22;4904;49.152;11.004;2022-09-17T17:22:45;11.20;99.90
9730;DHT22;4904;49.152;11.004;2022-09-17T17:25:13;11.20;99.90
9730;DHT22;4904;49.152;11.004;2022-09-17T17:27:41;11.20;99.90
9730;DHT22;4904;49.152;11.004;2022-09-17T17:30:12;11.20;99.90
9730;DHT22;4904;49.152;11.004;2022-09-17T17:32:44;11.20;99.90
9730;DHT22;4904;49.152;11.004;2022-09-17T17:35:16;11.20;99.90
9730;DHT22;4904;49.152;11.004;2022-09-17T17:37:44;11.10;99.90
9730;DHT22;4904;49.152;11.004;2022-09-17T17:40:13;11.20;99.90
9730;DHT22;4904;49.152;11.004;2022-09-17T17:42:40;11.20;99.90
9730;DHT22;4904;49.152;11.004;2022-09-17T17:45:09;11.20;99.90
9730;DHT22;4904;49.152;11.004;2022-09-17T17:47:36;11.10;99.90
9730;DHT22;4904;49.152;11.004;2022-09-17T17:50:04;11.20;99.90
9730;DHT22;4904;49.152;11.004;2022-09-17T17:52:33;11.10;99.90
9730;DHT22;4904;49.152;11.004;2022-09-17T17:55:01;11.10;99.90
9730;DHT22;4904;49.152;11.004;2022-09-17T17:57:28;11.00;99.90
9730;DHT22;4904;49.152;11.004;2022-09-17T17:59:54;11.00;99.90
9730;DHT22;4904;49.152;11.004;2022-09-17T18:02:22;11.00;99.90
9730;DHT22;4904;49.152;11.004;2022-09-17T18:04:49;11.10;99.90
9730;DHT22;4904;49.152;11.004;2022-09-17T18:07:16;11.10;99.90
9730;DHT22;4904;49.152;11.004;2022-09-17T18:09:44;11.10;99.90
9730;DHT22;4904;49.152;11.004;2022-09-17T18:12:11;11.00;99.90
9730;DHT22;4904;49.152;11.004;2022-09-17T18:14:38;10.90;99.90
9730;DHT22;4904;49.152;11.004;2022-09-17T18:17:05;10.80;99.90
9730;DHT22;4904;49.152;11.004;2022-09-17T18:19:32;10.80;99.90
9730;DHT22;4904;49.152;11.004;2022-09-17T18:21:59;11.00;99.90
9730;DHT22;4904;49.152;11.004;2022-09-17T18:24:26;10.70;99.90
9730;DHT22;4904;49.152;11.004;2022-09-17T18:26:54;10.50;99.90
9730;DHT22;4904;49.152;11.004;2022-09-17T18:29:22;10.60;99.90
9730;DHT22;4904;49.152;11.004;2022-09-17T18:31:49;10.50;99.90
9730;DHT22;4904;49.152;11.004;2022-09-17T18:34:16;10.50;99.90
9730;DHT22;4904;49.152;11.004;2022-09-17T18:36:43;10.40;99.90
9730;DHT22;4904;49.152;11.004;2022-09-17T18:39:14;10.30;99.90
9730;DHT22;4904;49.152;11.004;2022-09-17T18:41:44;10.40;99.90
9730;DHT22;4904;49.152;11.004;2022-09-17T18:44:12;10.30;99.90
9730;DHT22;4904;49.152;11.004;2022-09-17T18:46:39;10.30;99.90
9730;DHT22;4904;49.152;11.004;2022-09-17T18:49:07;10.30;99.90
9730;DHT22;4904;49.152;11.004;2022-09-17T18:51:34;10.20;99.90
9730;DHT22;4904;49.152;11.004;2022-09-17T18:54:01;10.10;99.90
9730;DHT22;4904;49.152;11.004;2022-09-17T18:56:29;10.20;99.90
9730;DHT22;4904;49.152;11.004;2022-09-17T18:58:59;10.20;99.90
9730;DHT22;4904;49.152;11.004;2022-09-17T19:01:29;10.20;99.90
9730;DHT22;4904;49.152;11.004;2022-09-17T19:03:57;10.10;99.90
9730;DHT22;4904;49.152;11.004;2022-09-17T19:06:25;10.20;99.90
9730;DHT22;4904;49.152;11.004;2022-09-17T19:18:50;10.10;99.90
9730;DHT22;4904;49.152;11.004;2022-09-17T19:21:18;10.10;99.90
9730;DHT22;4904;49.152;11.004;2022-09-17T19:23:47;10.10;99.90
9730;DHT22;4904;49.152;11.004;2022-09-17T19:26:16;10.20;99.90
9730;DHT22;4904;49.152;11.004;2022-09-17T19:28:44;10.00;99.90
9730;DHT22;4904;49.152;11.004;2022-09-17T19:31:12;10.00;99.90
9730;DHT22;4904;49.152;11.004;2022-09-17T19:33:40;10.00;99.90
9730;DHT22;4904;49.152;11.004;2022-09-17T19:36:11;9.90;99.90
9730;DHT22;4904;49.152;11.004;2022-09-17T19:38:38;9.90;99.90
9730;DHT22;4904;49.152;11.004;2022-09-17T19:41:08;9.90;99.90
9730;DHT22;4904;49.152;11.004;2022-09-17T19:43:36;9.80;99.90
9730;DHT22;4904;49.152;11.004;2022-09-17T19:46:05;9.80;99.90
9730;DHT22;4904;49.152;11.004;2022-09-17T19:48:33;9.80;99.90